CYYQ

Details ICAO CYYQ (YYQ)
Name CHURCHILL
Region Canada
Timezone America/Winnipeg (UTC-5.0)
Plans Departing 49
Arriving 68
Stats Elevation 94 ft / 29 m (AMSL)
Location 58.743971° -94.063864°
Runways 2
Magnetic Variation 2.066° W
Sunrise 2018-05-21 09:36:05 UTC / 2018-05-21 04:36:05 Local
Sunset 2018-05-22 02:52:30 UTC / 2018-05-21 21:52:30 Local
Advertisement - Login to hide

Runways

ID Width Length Bearing (true) Bearing (mag) Surface Threshold Offset Overrun Length
07 100 ft / 30 m 3,988 ft / 1,215 m 70.97° 73.04° Gravel 0 ft / 0 m 0 ft / 0 m
15 160 ft / 49 m 9,178 ft / 2,797 m 152.64° 154.71° Asphalt 0 ft / 0 m 0 ft / 0 m
25 100 ft / 30 m 3,988 ft / 1,215 m 250.99° 253.06° Gravel 0 ft / 0 m 0 ft / 0 m
33 160 ft / 49 m 9,178 ft / 2,797 m 332.66° 334.73° Asphalt 0 ft / 0 m 0 ft / 0 m

Map

Weather


0- 5 10 15 20 25 30 35+ Temperature / ° C

Clouds and Precipitation
Forecast for 2018-05-22 00:00 UTC. Updated 2 hours ago

Ground ~20,000 ft ~40,000 ft Winds

METAR

CYYQ 220000Z 03008KT 15SM OVC012 M05/M07 A3017 RMK SC8 SLP222

TAF

TAF CYYQ 212338Z 2200/2224 02010KT P6SM OVC012 FM221400 08008KT P6SM BKN015 FM222100 15010KT P6SM SCT020 BKN100 RMK NXT FCST BY 220600Z

Frequencies

Tower 126.90 MHz INTL AIR
Tower 122.20 MHz MF CHURCHILL RDO
Warning: Do not use this data for real-world aviation or navigation. No guarantee of current accuracy is given.